createdAt,value
2022-10-24T00:02:15.503Z,100.00
2022-10-24T00:07:55.418Z,100.00
2022-10-24T00:13:35.539Z,100.00
2022-10-24T00:19:15.416Z,100.00
2022-10-24T00:24:55.460Z,100.00
2022-10-24T00:30:35.461Z,100.00
2022-10-24T00:36:15.546Z,100.00
2022-10-24T00:42:05.461Z,100.00
2022-10-24T00:47:45.744Z,100.00
2022-10-24T00:53:27.451Z,100.00
2022-10-24T00:59:10.527Z,100.00
2022-10-24T01:04:51.479Z,100.00
2022-10-24T01:10:49.417Z,100.00
2022-10-24T01:16:35.455Z,100.00
2022-10-24T01:22:19.498Z,100.00
2022-10-24T01:28:10.454Z,100.00
2022-10-24T01:33:54.499Z,100.00
2022-10-24T01:39:39.569Z,100.00
2022-10-24T01:45:25.545Z,100.00
2022-10-24T01:51:09.462Z,100.00
2022-10-24T01:56:49.440Z,100.00
2022-10-24T02:02:35.441Z,100.00
2022-10-24T02:08:18.727Z,100.00
2022-10-24T02:14:03.631Z,100.00
2022-10-24T02:19:44.511Z,100.00
2022-10-24T02:25:30.514Z,100.00
2022-10-24T02:31:14.527Z,100.00
2022-10-24T02:36:57.690Z,100.00
2022-10-24T02:42:39.530Z,100.00
2022-10-24T02:48:23.565Z,100.00
2022-10-24T02:54:07.694Z,100.00
2022-10-24T02:59:47.578Z,100.00
2022-10-24T03:05:27.524Z,100.00
2022-10-24T03:11:07.542Z,100.00
2022-10-24T03:16:47.497Z,100.00
2022-10-24T03:22:30.617Z,100.00
2022-10-24T03:28:10.538Z,100.00
2022-10-24T03:33:50.580Z,100.00
2022-10-24T03:39:30.552Z,100.00
2022-10-24T03:45:17.559Z,100.00
2022-10-24T03:50:57.558Z,100.00
2022-10-24T03:56:37.498Z,100.00
2022-10-24T04:02:19.625Z,100.00
2022-10-24T04:07:59.613Z,100.00
2022-10-24T04:13:39.535Z,100.00
2022-10-24T04:19:19.604Z,100.00
2022-10-24T04:24:59.570Z,100.00
2022-10-24T04:30:39.587Z,100.00
2022-10-24T04:36:20.673Z,100.00
2022-10-24T04:42:05.683Z,100.00
2022-10-24T04:47:45.852Z,100.00
2022-10-24T04:53:26.579Z,100.00
2022-10-24T04:59:06.541Z,100.00
2022-10-24T05:04:46.721Z,100.00
2022-10-24T05:10:27.752Z,100.00
2022-10-24T05:16:07.569Z,100.00
2022-10-24T05:21:47.678Z,100.00
2022-10-24T05:27:30.559Z,100.00
2022-10-24T05:33:10.608Z,100.00
2022-10-24T05:38:50.664Z,100.00
2022-10-24T05:44:30.699Z,100.00
2022-10-24T05:50:10.575Z,100.00
2022-10-24T05:55:50.593Z,100.00
2022-10-24T06:01:30.739Z,100.00
2022-10-24T06:07:10.637Z,100.00
2022-10-24T06:12:51.674Z,100.00
2022-10-24T06:18:29.758Z,100.00
2022-10-24T06:24:09.659Z,100.00
2022-10-24T06:29:49.691Z,100.00
2022-10-24T06:35:30.622Z,100.00
2022-10-24T06:41:10.631Z,100.00
2022-10-24T06:46:57.657Z,100.00
2022-10-24T06:52:41.685Z,100.00
2022-10-24T06:58:23.679Z,100.00
2022-10-24T07:04:05.815Z,100.00
2022-10-24T07:09:54.720Z,100.00
2022-10-24T07:15:34.703Z,100.00
2022-10-24T07:21:18.709Z,100.00
2022-10-24T07:26:58.790Z,100.00
2022-10-24T07:32:38.660Z,100.00
2022-10-24T07:38:18.940Z,100.00
2022-10-24T07:43:58.704Z,100.00
2022-10-24T07:49:38.680Z,100.00
2022-10-24T07:55:18.726Z,100.00
2022-10-24T08:00:58.932Z,100.00
2022-10-24T08:06:42.668Z,100.00
2022-10-24T08:12:25.821Z,100.00
2022-10-24T08:18:05.694Z,100.00
2022-10-24T08:23:46.721Z,100.00
2022-10-24T08:29:28.908Z,100.00
2022-10-24T08:35:08.730Z,100.00
2022-10-24T08:40:48.737Z,100.00
2022-10-24T08:46:51.680Z,100.00
2022-10-24T08:52:41.826Z,100.00
2022-10-24T08:58:26.754Z,100.00
2022-10-24T09:04:08.746Z,100.00
2022-10-24T09:09:55.732Z,100.00
2022-10-24T09:15:39.759Z,100.00
2022-10-24T09:21:21.817Z,100.00
2022-10-24T09:27:02.983Z,99.62
2022-10-24T09:32:44.773Z,97.55
2022-10-24T09:38:47.703Z,96.01
2022-10-24T09:44:45.737Z,92.80
2022-10-24T09:50:37.758Z,91.41
2022-10-24T09:56:24.882Z,91.17
2022-10-24T10:02:04.899Z,90.96
2022-10-24T10:07:47.074Z,90.47
2022-10-24T10:13:37.781Z,89.99
2022-10-24T10:19:26.770Z,89.34
2022-10-24T10:25:11.261Z,88.85
2022-10-24T10:30:50.839Z,88.55
2022-10-24T10:36:34.799Z,88.84
2022-10-24T10:42:21.771Z,87.99
2022-10-24T10:48:15.817Z,87.02
2022-10-24T10:54:04.866Z,85.54
2022-10-24T10:59:54.770Z,85.08
2022-10-24T11:05:46.810Z,84.31
2022-10-24T11:11:34.814Z,84.25
2022-10-24T11:17:23.800Z,84.41
2022-10-24T11:23:07.794Z,85.02
2022-10-24T11:28:54.814Z,83.98
2022-10-24T11:34:38.803Z,83.78
2022-10-24T11:40:24.950Z,83.77
2022-10-24T11:46:11.790Z,84.75
2022-10-24T11:51:55.903Z,84.14
2022-10-24T11:57:39.924Z,84.03
2022-10-24T12:03:52.919Z,84.11
2022-10-24T12:09:58.983Z,83.83
2022-10-24T12:15:54.866Z,83.39
2022-10-24T12:21:37.799Z,82.00
2022-10-24T12:27:20.833Z,79.69
2022-10-24T12:33:02.798Z,79.22
2022-10-24T12:39:19.939Z,78.64
2022-10-24T12:45:02.829Z,77.98
2022-10-24T12:51:12.910Z,77.08
2022-10-24T12:57:39.858Z,77.97
2022-10-24T13:03:27.842Z,78.19
2022-10-24T13:09:29.838Z,78.65
2022-10-24T13:15:32.827Z,78.74
2022-10-24T13:21:29.917Z,78.09
2022-10-24T13:27:36.879Z,77.93
2022-10-24T13:33:50.898Z,78.06
2022-10-24T13:39:40.368Z,77.75
2022-10-24T13:45:39.979Z,77.31
2022-10-24T13:51:27.997Z,77.50
2022-10-24T13:57:07.936Z,78.04
2022-10-24T14:02:52.917Z,78.68
2022-10-24T14:08:39.956Z,78.76
2022-10-24T14:14:26.910Z,79.18
2022-10-24T14:20:10.967Z,79.47
2022-10-24T14:25:53.237Z,79.90
2022-10-24T14:31:37.899Z,80.59
2022-10-24T14:37:22.928Z,81.29
2022-10-24T14:43:03.950Z,82.01
2022-10-24T14:48:44.996Z,82.97
2022-10-24T14:54:33.175Z,83.79
2022-10-24T15:06:10.969Z,85.24
2022-10-24T15:11:53.910Z,85.75
2022-10-24T15:17:41.892Z,86.27
2022-10-24T15:23:33.039Z,86.94
2022-10-24T15:29:21.978Z,87.44
2022-10-24T15:35:01.942Z,88.08
2022-10-24T15:40:43.959Z,88.54
2022-10-24T15:46:24.216Z,88.87
2022-10-24T15:52:05.967Z,89.57
2022-10-24T15:57:52.938Z,90.22
2022-10-24T16:03:35.972Z,90.87
2022-10-24T16:09:15.924Z,91.66
2022-10-24T16:14:55.995Z,92.32
2022-10-24T16:20:36.960Z,92.72
2022-10-24T16:26:17.071Z,93.40
2022-10-24T16:31:58.026Z,93.91
2022-10-24T16:37:37.959Z,93.95
2022-10-24T16:43:19.018Z,94.18
2022-10-24T16:48:59.074Z,94.04
2022-10-24T16:54:39.142Z,94.10
2022-10-24T17:00:22.007Z,94.46
2022-10-24T17:06:02.329Z,94.80
2022-10-24T17:11:46.239Z,94.87
2022-10-24T17:17:26.958Z,95.26
2022-10-24T17:23:07.148Z,95.17
2022-10-24T17:28:47.116Z,95.32
2022-10-24T17:34:26.986Z,95.93
2022-10-24T17:40:16.010Z,96.82
2022-10-24T17:45:57.068Z,97.01
2022-10-24T17:51:43.988Z,96.86
2022-10-24T17:57:24.003Z,97.25
2022-10-24T18:03:05.028Z,97.67
2022-10-24T18:08:45.079Z,97.82
2022-10-24T18:14:25.108Z,97.78
2022-10-24T18:20:05.042Z,98.10
2022-10-24T18:25:45.047Z,98.36
2022-10-24T18:31:27.036Z,98.35
2022-10-24T18:37:07.125Z,98.81
2022-10-24T18:42:57.128Z,99.73
2022-10-24T18:48:38.192Z,99.55
2022-10-24T18:54:21.070Z,99.74
2022-10-24T19:00:10.098Z,100.00
2022-10-24T19:05:58.130Z,100.00
2022-10-24T19:11:38.072Z,100.00
2022-10-24T19:17:21.119Z,100.00
2022-10-24T19:23:01.070Z,100.00
2022-10-24T19:28:41.161Z,100.00
2022-10-24T19:34:22.072Z,100.00
2022-10-24T19:40:02.070Z,100.00
2022-10-24T19:45:49.996Z,100.00
2022-10-24T19:51:33.074Z,100.00
2022-10-24T19:57:13.113Z,100.00
2022-10-24T20:02:53.069Z,100.00
2022-10-24T20:08:33.068Z,100.00
2022-10-24T20:14:13.171Z,100.00
2022-10-24T20:19:53.091Z,100.00
2022-10-24T20:25:33.287Z,100.00
2022-10-24T20:31:13.279Z,100.00
2022-10-24T20:36:55.080Z,100.00
2022-10-24T20:42:35.085Z,100.00
2022-10-24T20:48:15.136Z,100.00
2022-10-24T20:53:57.213Z,100.00
2022-10-24T20:59:37.171Z,100.00
2022-10-24T21:05:18.350Z,100.00
2022-10-24T21:10:58.142Z,100.00
2022-10-24T21:16:39.216Z,100.00
2022-10-24T21:22:17.162Z,100.00
2022-10-24T21:27:57.177Z,100.00
2022-10-24T21:33:37.218Z,100.00
2022-10-24T21:39:19.178Z,100.00
2022-10-24T21:44:59.191Z,100.00
2022-10-24T21:50:39.279Z,100.00
2022-10-24T21:56:21.360Z,100.00
2022-10-24T22:02:08.260Z,100.00
2022-10-24T22:07:50.400Z,100.00
2022-10-24T22:13:39.335Z,100.00
2022-10-24T22:19:24.278Z,100.00
2022-10-24T22:25:04.473Z,100.00
2022-10-24T22:30:49.325Z,100.00
2022-10-24T22:36:38.306Z,100.00
2022-10-24T22:42:25.374Z,100.00
2022-10-24T22:48:21.299Z,100.00
2022-10-24T22:54:01.213Z,100.00
2022-10-24T22:59:42.258Z,100.00
2022-10-24T23:05:33.301Z,100.00
2022-10-24T23:11:14.282Z,100.00
2022-10-24T23:17:03.246Z,100.00
2022-10-24T23:22:48.438Z,100.00
2022-10-24T23:28:43.429Z,100.00
2022-10-24T23:34:24.330Z,100.00
2022-10-24T23:40:05.260Z,100.00
2022-10-24T23:45:50.362Z,100.00
2022-10-24T23:51:37.390Z,100.00
2022-10-24T23:57:25.346Z,100.00
